Time;durP1;ratioP1;P1;durP2;ratioP2;P2;SDS_P1;SDS_P2;PMS_P1;PMS_P2;Temp;Humidity;BMP_temperature;BMP_pressure;BME280_temperature;BME280_humidity;BME280_pressure;Samples;Min_cycle;Max_cycle;Signal;HPM_P1;HPM_P2
2024/01/12 00:00:49;;;;;;;29.13;13.02;;;;;;;0.30;58.81;95835.50;6137862;23;20019;-85
2024/01/12 00:03:15;;;;;;;30.45;13.70;;;;;;;0.35;58.35;95843.72;6187994;23;20011;-85
2024/01/12 00:05:41;;;;;;;30.27;13.88;;;;;;;0.46;58.39;95834.50;6137934;23;20083;-85
2024/01/12 00:08:06;;;;;;;31.42;14.50;;;;;;;0.04;59.42;95839.75;6162736;23;20012;-85
2024/01/12 00:10:32;;;;;;;34.53;14.02;;;;;;;0.26;59.18;95836.63;6138375;23;20012;-84
2024/01/12 00:12:57;;;;;;;32.20;14.35;;;;;;;0.16;59.70;95838.97;6159451;23;20009;-85
2024/01/12 00:17:49;;;;;;;37.03;15.02;;;;;;;0.16;59.87;95836.41;6212571;23;20024;-85
2024/01/12 00:20:15;;;;;;;33.05;14.30;;;;;;;-0.36;61.07;95838.88;6138351;23;20043;-85
2024/01/12 00:22:40;;;;;;;33.72;13.90;;;;;;;0.22;59.87;95840.31;6187248;23;20007;-85
2024/01/12 00:25:06;;;;;;;34.42;15.02;;;;;;;0.41;59.37;95846.81;6162609;23;20009;-85
2024/01/12 00:27:32;;;;;;;34.08;15.23;;;;;;;0.48;59.04;95838.63;6161202;23;20017;-85
2024/01/12 00:29:57;;;;;;;34.50;14.88;;;;;;;0.42;59.02;95844.16;6162612;23;20000;-85
2024/01/12 00:32:22;;;;;;;35.78;15.75;;;;;;;0.36;58.99;95842.81;6162507;23;20011;-85
2024/01/12 00:37:13;;;;;;;36.25;16.00;;;;;;;-0.36;60.54;95826.94;6211952;23;20017;-85
2024/01/12 00:39:39;;;;;;;36.08;16.00;;;;;;;-0.38;61.30;95828.78;6163102;23;20017;-85
2024/01/12 00:42:08;;;;;;;35.53;14.98;;;;;;;0.01;60.14;95847.63;6139152;23;20017;-85
2024/01/12 00:44:36;;;;;;;34.70;14.65;;;;;;;-0.35;61.18;95837.97;6163563;23;20013;-85
2024/01/12 00:47:01;;;;;;;31.67;14.05;;;;;;;-0.03;61.20;95839.31;6165181;23;20008;-85
2024/01/12 00:52:02;;;;;;;31.25;14.02;;;;;;;-0.45;61.60;95823.19;6212581;23;20020;-85
2024/01/12 00:54:28;;;;;;;30.58;13.55;;;;;;;-0.41;61.07;95847.66;6189177;23;20008;-84
2024/01/12 00:56:53;;;;;;;34.00;15.25;;;;;;;-0.31;61.08;95839.41;6188807;23;20009;-85
2024/01/12 00:59:19;;;;;;;34.72;15.02;;;;;;;-0.24;60.55;95851.72;6164399;23;20016;-85
2024/01/12 01:01:45;;;;;;;35.65;16.33;;;;;;;-0.65;61.34;95857.66;6163600;23;20027;-85
2024/01/12 01:04:11;;;;;;;32.03;13.55;;;;;;;-0.34;60.44;95845.56;6189205;23;20009;-85
2024/01/12 01:06:36;;;;;;;33.70;15.18;;;;;;;-0.27;60.54;95851.09;6188487;23;20009;-85
2024/01/12 01:09:04;;;;;;;31.13;13.98;;;;;;;-0.53;60.78;95847.56;6188998;23;20001;-85
2024/01/12 01:11:30;;;;;;;36.22;14.15;;;;;;;-0.42;60.37;95848.59;6164172;23;20035;-85
2024/01/12 01:13:55;;;;;;;31.27;14.10;;;;;;;-0.90;61.41;95845.50;6177181;23;20096;-85
2024/01/12 01:16:21;;;;;;;33.13;15.38;;;;;;;-0.47;60.31;95842.13;6163777;23;20066;-85
2024/01/12 01:18:46;;;;;;;32.22;14.30;;;;;;;-0.44;60.56;95858.06;6188777;23;20010;-85
2024/01/12 01:21:12;;;;;;;31.95;14.32;;;;;;;-0.33;59.77;95866.81;6164708;23;20016;-85
2024/01/12 01:23:37;;;;;;;32.92;14.88;;;;;;;-0.23;59.61;95860.19;6163988;23;20009;-84
2024/01/12 01:26:05;;;;;;;33.95;15.05;;;;;;;-0.40;60.00;95862.09;6188978;23;20088;-85
2024/01/12 01:28:31;;;;;;;34.58;14.57;;;;;;;-0.23;60.12;95868.72;6164979;23;20011;-85
2024/01/12 01:31:00;;;;;;;32.58;14.48;;;;;;;-0.35;60.23;95873.75;6164231;23;20012;-85
2024/01/12 01:33:26;;;;;;;33.80;15.20;;;;;;;-0.73;61.19;95864.13;6189200;23;20004;-85
2024/01/12 01:35:51;;;;;;;34.75;15.18;;;;;;;-0.25;60.00;95870.53;6164448;23;20034;-84
2024/01/12 01:38:17;;;;;;;34.15;15.32;;;;;;;-0.21;59.87;95861.75;6188913;23;20055;-85
2024/01/12 01:40:42;;;;;;;34.65;15.00;;;;;;;-0.47;60.43;95871.03;6164310;23;20092;-85
2024/01/12 01:43:09;;;;;;;32.03;14.32;;;;;;;-0.46;60.16;95872.69;6139562;23;20074;-85
2024/01/12 01:45:36;;;;;;;33.97;15.90;;;;;;;-0.83;61.08;95864.69;6188719;23;20052;-85
2024/01/12 01:48:00;;;;;;;35.58;14.93;;;;;;;-0.68;60.69;95885.94;6157158;23;20029;-85
2024/01/12 01:50:28;;;;;;;33.28;15.20;;;;;;;-0.38;59.94;95892.66;6134227;23;20009;-85
2024/01/12 01:52:56;;;;;;;34.10;15.73;;;;;;;-0.92;61.86;95889.94;6135197;23;20009;-85
2024/01/12 01:55:21;;;;;;;34.20;15.27;;;;;;;-0.94;60.98;95884.09;6158680;23;20068;-85
2024/01/12 01:57:47;;;;;;;35.13;14.15;;;;;;;-0.28;59.97;95893.72;6109857;23;20065;-85
2024/01/12 02:00:13;;;;;;;34.63;14.50;;;;;;;-0.70;60.78;95892.88;6158355;23;20009;-85
2024/01/12 02:02:39;;;;;;;33.08;14.98;;;;;;;-0.85;60.83;95894.59;6134013;23;20020;-85
2024/01/12 02:07:36;;;;;;;32.67;14.38;;;;;;;-0.31;59.16;95896.47;6185257;23;20039;-85
2024/01/12 02:10:03;;;;;;;32.28;14.35;;;;;;;-0.38;59.81;95887.56;6188259;23;20004;-85
2024/01/12 02:12:29;;;;;;;33.20;14.05;;;;;;;-0.30;58.57;95859.78;6164066;23;20032;-85
2024/01/12 02:14:58;;;;;;;30.33;14.32;;;;;;;-0.69;59.73;95878.34;6163855;23;20020;-85
2024/01/12 02:17:24;;;;;;;34.72;15.65;;;;;;;-0.68;60.64;95885.13;6164573;23;20008;-85
2024/01/12 02:19:56;;;;;;;33.33;14.70;;;;;;;-0.84;60.49;95883.47;6163999;23;20016;-85
2024/01/12 02:22:21;;;;;;;33.28;14.50;;;;;;;-1.15;61.34;95886.19;6188063;23;20087;-85
2024/01/12 02:24:47;;;;;;;36.47;15.27;;;;;;;-1.24;61.53;95879.88;6157666;23;20091;-85
2024/01/12 02:27:12;;;;;;;34.05;16.00;;;;;;;-1.78;61.89;95865.91;6133756;23;20094;-85
2024/01/12 02:29:38;;;;;;;32.60;14.82;;;;;;;-1.40;61.44;95875.66;6134126;23;20041;-85
2024/01/12 02:32:04;;;;;;;33.42;14.40;;;;;;;-1.31;62.16;95869.22;6132945;23;20008;-85
2024/01/12 02:34:29;;;;;;;32.78;13.98;;;;;;;-1.53;61.47;95869.63;6134005;23;20032;-85
2024/01/12 02:36:55;;;;;;;32.55;14.70;;;;;;;-1.71;62.16;95885.94;6109658;23;20013;-85
2024/01/12 02:39:23;;;;;;;33.67;13.07;;;;;;;-1.53;62.91;95879.00;6134318;23;20079;-84
2024/01/12 02:41:49;;;;;;;32.40;14.00;;;;;;;-1.24;61.90;95896.03;6158097;23;20011;-85
2024/01/12 02:44:14;;;;;;;34.90;14.50;;;;;;;-1.99;63.37;95880.66;6133865;23;20009;-86
2024/01/12 02:46:40;;;;;;;32.28;14.30;;;;;;;-2.20;63.79;95895.41;6158892;23;20076;-84
2024/01/12 02:49:08;;;;;;;35.88;14.95;;;;;;;-2.02;64.46;95877.47;6111201;23;20025;-84
2024/01/12 02:53:59;;;;;;;31.85;13.52;;;;;;;-1.67;61.90;95882.34;6186033;23;20017;-85
2024/01/12 02:56:28;;;;;;;34.55;14.85;;;;;;;-1.84;62.45;95893.47;6163035;23;20156;-85
2024/01/12 02:58:54;;;;;;;32.58;14.02;;;;;;;-1.54;61.79;95890.09;6163957;23;20023;-85
2024/01/12 03:01:19;;;;;;;33.72;14.75;;;;;;;-1.08;60.66;95890.84;6138262;23;20083;-85
2024/01/12 03:03:45;;;;;;;33.15;13.75;;;;;;;-1.17;60.64;95883.72;6163548;23;20031;-85
2024/01/12 03:06:10;;;;;;;35.38;13.68;;;;;;;-0.93;60.31;95876.38;6188389;23;19999;-85
2024/01/12 03:08:35;;;;;;;34.58;14.23;;;;;;;-0.63;59.61;95870.31;6188019;23;20008;-85
2024/01/12 03:11:01;;;;;;;30.02;12.50;;;;;;;-0.74;59.11;95883.75;6187635;23;20008;-85
2024/01/12 03:13:27;;;;;;;31.33;12.75;;;;;;;-0.75;59.51;95855.75;6213016;23;20020;-85
2024/01/12 03:23:28;;;;;;;28.83;12.52;;;;;;;-1.07;59.16;95856.72;6212758;23;20021;-85
2024/01/12 03:25:54;;;;;;;31.65;12.75;;;;;;;-0.58;59.22;95863.19;6138595;23;20012;-85
2024/01/12 03:28:20;;;;;;;30.55;12.40;;;;;;;-0.45;58.57;95863.28;6163370;23;20013;-85
2024/01/12 03:30:46;;;;;;;32.47;13.10;;;;;;;-0.52;58.13;95869.66;6187566;23;20063;-85
2024/01/12 03:33:14;;;;;;;30.38;11.85;;;;;;;-0.63;58.61;95866.03;6188073;23;20004;-85
2024/01/12 03:35:41;;;;;;;28.55;12.50;;;;;;;-0.67;58.45;95854.34;6138966;23;20012;-85
2024/01/12 03:38:07;;;;;;;27.02;12.77;;;;;;;-0.92;59.00;95860.13;6163340;23;20035;-85
2024/01/12 03:40:33;;;;;;;29.13;12.57;;;;;;;-0.57;58.22;95857.19;6163169;23;20004;-85
2024/01/12 03:42:58;;;;;;;30.27;13.50;;;;;;;-1.33;60.38;95850.63;6162839;23;20016;-85
2024/01/12 03:45:24;;;;;;;31.83;13.70;;;;;;;-0.92;59.03;95861.84;6187788;23;20000;-85
2024/01/12 03:47:49;;;;;;;29.50;12.52;;;;;;;-0.75;58.10;95851.44;6163063;23;20009;-85
2024/01/12 03:50:15;;;;;;;28.88;13.38;;;;;;;-0.62;57.64;95856.63;6162938;23;20008;-85
2024/01/12 03:52:40;;;;;;;32.85;13.30;;;;;;;-0.78;58.68;95849.09;6187938;23;20020;-85
2024/01/12 03:57:31;;;;;;;28.63;12.43;;;;;;;-0.67;58.05;95848.41;6210571;23;20028;-86
2024/01/12 04:00:00;;;;;;;28.95;13.73;;;;;;;-0.60;58.34;95859.91;6136472;23;20013;-85
2024/01/12 04:02:27;;;;;;;30.05;13.07;;;;;;;-0.47;57.82;95860.00;6136870;23;20012;-85
2024/01/12 04:04:52;;;;;;;35.50;13.90;;;;;;;-0.77;58.30;95860.94;6138160;23;20019;-85
2024/01/12 04:07:19;;;;;;;30.23;13.43;;;;;;;-0.85;58.99;95845.25;6137659;23;20035;-85
2024/01/12 04:09:46;;;;;;;33.05;13.65;;;;;;;-0.51;58.34;95850.88;6187412;23;20040;-85
2024/01/12 04:12:11;;;;;;;34.15;14.52;;;;;;;-0.42;58.11;95863.06;6162530;23;20004;-85
2024/01/12 04:14:37;;;;;;;33.45;13.90;;;;;;;-0.44;57.66;95863.19;6162887;23;20008;-85
2024/01/12 04:19:28;;;;;;;32.45;13.73;;;;;;;-0.76;58.43;95849.81;6157488;23;20021;-85
2024/01/12 04:21:56;;;;;;;32.47;13.40;;;;;;;-0.25;57.62;95864.59;6159851;23;20083;-85
2024/01/12 04:24:23;;;;;;;32.83;13.65;;;;;;;-0.55;58.14;95841.75;6159982;23;20012;-85
2024/01/12 04:26:51;;;;;;;33.13;14.32;;;;;;;-0.41;57.88;95868.09;6110582;23;20012;-85
2024/01/12 04:29:19;;;;;;;32.40;13.45;;;;;;;-0.14;57.19;95851.16;6110917;23;20019;-84
2024/01/12 04:31:44;;;;;;;34.17;14.43;;;;;;;-0.06;57.08;95870.22;6182940;23;20024;-85
2024/01/12 04:34:09;;;;;;;34.88;13.88;;;;;;;-0.04;57.77;95865.81;6164572;23;20016;-85
2024/01/12 04:36:35;;;;;;;33.95;14.13;;;;;;;-0.14;57.39;95859.63;6164522;23;20017;-85
2024/01/12 04:41:25;;;;;;;31.70;13.38;;;;;;;-0.21;58.56;95860.91;6213533;23;20021;-85
2024/01/12 04:43:51;;;;;;;36.00;14.13;;;;;;;-0.16;58.31;95851.25;6162662;23;20020;-85
2024/01/12 04:46:17;;;;;;;33.75;13.77;;;;;;;0.03;57.70;95850.09;6162735;23;20012;-85
2024/01/12 04:48:42;;;;;;;33.67;13.65;;;;;;;0.25;57.07;95867.44;6162850;23;20032;-85
2024/01/12 04:51:08;;;;;;;29.42;13.43;;;;;;;0.09;56.72;95859.91;6137419;23;20008;-85
2024/01/12 04:53:33;;;;;;;32.47;13.65;;;;;;;0.17;57.01;95865.34;6164403;23;20068;-84
2024/01/12 04:58:24;;;;;;;28.47;12.83;;;;;;;-0.04;56.80;95872.66;6208705;23;20032;-85
2024/01/12 05:00:49;;;;;;;30.60;13.40;;;;;;;-0.07;57.28;95866.00;6163596;23;20307;-85
2024/01/12 05:03:14;;;;;;;31.50;13.75;;;;;;;-0.53;57.49;95868.84;6164657;23;20051;-85
2024/01/12 05:08:05;;;;;;;29.80;13.70;;;;;;;-0.45;58.20;95871.75;6214516;23;20029;-85
2024/01/12 05:10:31;;;;;;;30.38;13.18;;;;;;;-0.07;57.45;95868.56;6164350;23;20015;-85
2024/01/12 05:12:56;;;;;;;28.15;12.55;;;;;;;-0.05;57.72;95869.28;6188848;23;20005;-85
2024/01/12 05:15:25;;;;;;;31.20;13.07;;;;;;;-0.38;58.09;95850.94;6188812;23;20032;-85
2024/01/12 05:17:51;;;;;;;30.98;12.73;;;;;;;-0.06;57.99;95874.50;6164422;23;20016;-85
2024/01/12 05:20:16;;;;;;;32.28;13.95;;;;;;;0.06;57.10;95867.78;6188873;23;20070;-85
2024/01/12 05:25:19;;;;;;;31.63;14.05;;;;;;;-0.05;56.30;95874.41;6214254;23;20028;-85
2024/01/12 05:27:45;;;;;;;33.80;14.05;;;;;;;-0.10;56.73;95878.97;6164492;23;20051;-85
2024/01/12 05:30:11;;;;;;;33.88;14.30;;;;;;;-0.06;55.91;95874.50;6164365;23;20015;-85
2024/01/12 05:32:36;;;;;;;31.38;13.75;;;;;;;-0.35;57.10;95882.22;6163874;23;20009;-85
2024/01/12 05:35:02;;;;;;;34.53;14.15;;;;;;;-0.43;56.80;95871.66;6163805;23;20092;-85
2024/01/12 05:37:28;;;;;;;34.15;14.48;;;;;;;-0.95;57.50;95862.88;6189357;23;20004;-85
2024/01/12 05:42:28;;;;;;;36.67;14.18;;;;;;;-0.31;56.95;95864.97;6214107;23;20079;-85
2024/01/12 05:44:54;;;;;;;34.42;15.00;;;;;;;-0.89;58.40;95880.38;6187959;23;20004;-85
2024/01/12 05:47:19;;;;;;;30.55;13.07;;;;;;;-0.61;57.41;95878.69;6164079;23;20009;-85
2024/01/12 05:49:45;;;;;;;30.60;13.35;;;;;;;-0.74;57.62;95873.53;6164160;23;20008;-85
2024/01/12 05:52:10;;;;;;;33.65;14.27;;;;;;;-0.41;57.09;95882.63;6138682;23;20131;-85
2024/01/12 05:54:35;;;;;;;33.67;13.15;;;;;;;-0.60;57.86;95881.16;6161753;23;20023;-85
2024/01/12 05:57:01;;;;;;;31.25;13.45;;;;;;;-0.40;57.05;95882.53;6163868;23;20051;-84
2024/01/12 05:59:26;;;;;;;35.80;14.18;;;;;;;-0.49;57.67;95887.38;6139459;23;20128;-85
2024/01/12 06:01:55;;;;;;;34.38;14.00;;;;;;;-0.53;57.33;95891.00;6163949;23;20091;-85
2024/01/12 06:06:48;;;;;;;31.60;13.18;;;;;;;-0.92;58.28;95883.09;6213847;23;20031;-84
2024/01/12 06:09:17;;;;;;;34.42;13.35;;;;;;;-0.96;58.69;95899.50;6139664;23;20021;-85
2024/01/12 06:11:44;;;;;;;36.08;14.75;;;;;;;-1.08;58.80;95895.13;6140277;23;20015;-84
2024/01/12 06:14:09;;;;;;;34.78;13.85;;;;;;;-1.50;60.65;95896.69;6164756;23;20066;-85
2024/01/12 06:16:35;;;;;;;34.65;14.75;;;;;;;-1.33;59.33;95890.59;6188471;23;20004;-85
2024/01/12 06:19:01;;;;;;;32.90;13.43;;;;;;;-0.95;59.03;95890.13;6164130;23;20017;-86
2024/01/12 06:21:30;;;;;;;34.00;13.30;;;;;;;-0.93;58.94;95889.13;6164959;23;20038;-85
2024/01/12 06:23:55;;;;;;;34.13;13.65;;;;;;;-1.30;59.49;95888.69;6189117;23;20008;-85
2024/01/12 06:26:24;;;;;;;34.05;13.80;;;;;;;-1.72;60.72;95886.88;6164139;23;20036;-85
2024/01/12 06:28:53;;;;;;;38.13;14.50;;;;;;;-1.35;60.72;95906.03;6189014;23;20004;-85
2024/01/12 06:31:18;;;;;;;36.03;13.68;;;;;;;-1.26;59.70;95897.00;6165147;23;20106;-85
2024/01/12 06:33:44;;;;;;;36.83;14.20;;;;;;;-1.16;59.17;95912.63;6189471;23;20004;-85
2024/01/12 06:36:12;;;;;;;34.85;12.80;;;;;;;-1.01;58.65;95902.34;6188534;23;20001;-85
2024/01/12 06:38:37;;;;;;;31.92;12.63;;;;;;;-0.85;58.45;95909.91;6164166;23;20012;-85
2024/01/12 06:41:07;;;;;;;37.75;14.35;;;;;;;-1.06;58.72;95911.19;6163472;23;20027;-86
2024/01/12 06:43:32;;;;;;;36.22;14.43;;;;;;;-1.48;59.81;95921.22;6138717;23;20005;-85
2024/01/12 06:46:03;;;;;;;35.63;13.55;;;;;;;-1.25;59.31;95919.91;6163442;23;20135;-86
2024/01/12 06:48:28;;;;;;;30.70;12.43;;;;;;;-1.60;59.35;95917.63;6164109;23;20013;-86
2024/01/12 06:50:56;;;;;;;34.90;13.93;;;;;;;-1.58;60.11;95927.72;6163958;23;20009;-85
2024/01/12 06:53:22;;;;;;;33.50;12.32;;;;;;;-1.92;61.78;95921.09;6188234;23;20028;-85
2024/01/12 06:55:47;;;;;;;33.53;13.57;;;;;;;-1.79;61.60;95914.44;6188401;23;20059;-86
2024/01/12 07:05:48;;;;;;;34.55;12.93;;;;;;;-2.13;62.28;95918.00;6213872;23;20024;-85
2024/01/12 07:08:16;;;;;;;31.67;12.15;;;;;;;-1.78;62.12;95916.91;6188747;23;20015;-85
2024/01/12 07:10:42;;;;;;;31.48;12.02;;;;;;;-1.71;61.90;95911.44;6188287;23;20001;-85
2024/01/12 07:13:08;;;;;;;30.35;10.98;;;;;;;-1.77;61.38;95912.66;6163328;23;20016;-85
2024/01/12 07:18:00;;;;;;;28.42;10.88;;;;;;;-1.70;60.93;95920.75;6213804;23;20025;-85
2024/01/12 07:20:25;;;;;;;28.10;10.57;;;;;;;-2.29;62.54;95926.47;6189086;23;20008;-85
2024/01/12 07:22:51;;;;;;;25.17;10.25;;;;;;;-1.82;61.15;95924.81;6139842;23;20009;-85
2024/01/12 07:25:17;;;;;;;28.45;10.65;;;;;;;-1.70;60.79;95925.84;6164197;23;20039;-85
2024/01/12 07:27:42;;;;;;;26.55;11.02;;;;;;;-1.82;60.33;95910.31;6140376;23;20088;-86
2024/01/12 07:30:08;;;;;;;25.83;10.57;;;;;;;-1.98;60.73;95910.34;6184734;22;20044;-87
2024/01/12 07:32:35;;;;;;;27.90;11.18;;;;;;;-2.00;60.48;95908.78;6189399;23;20124;-87
2024/01/12 07:35:00;;;;;;;27.38;11.15;;;;;;;-1.94;60.05;95912.72;6165546;23;20013;-86
2024/01/12 07:37:26;;;;;;;26.25;10.98;;;;;;;-1.62;59.83;95916.03;6164410;23;20088;-86
2024/01/12 07:39:55;;;;;;;28.27;11.80;;;;;;;-1.80;59.22;95915.34;6162837;23;20012;-85
2024/01/12 07:42:20;;;;;;;26.38;10.82;;;;;;;-1.53;59.21;95915.53;6164879;23;20091;-86
2024/01/12 07:44:47;;;;;;;27.13;11.43;;;;;;;-1.47;59.36;95917.72;6138257;23;20028;-85
2024/01/12 07:47:17;;;;;;;25.90;10.18;;;;;;;-1.51;59.02;95910.34;6160989;23;20012;-85
2024/01/12 07:49:43;;;;;;;28.13;11.13;;;;;;;-1.54;58.66;95929.22;6161154;23;20011;-85
2024/01/12 07:52:08;;;;;;;25.85;10.82;;;;;;;-1.43;58.81;95916.69;6162781;23;20009;-85
2024/01/12 07:54:33;;;;;;;30.10;11.65;;;;;;;-1.17;58.74;95924.56;6162294;23;20012;-86
2024/01/12 07:57:02;;;;;;;27.33;11.32;;;;;;;-1.14;57.65;95908.25;6189151;23;20005;-86
2024/01/12 07:59:28;;;;;;;28.40;10.43;;;;;;;-1.40;58.27;95910.56;6164163;23;20062;-86
2024/01/12 08:01:53;;;;;;;27.70;11.52;;;;;;;-1.21;58.85;95912.88;6188197;23;20008;-86
2024/01/12 08:06:45;;;;;;;28.35;11.68;;;;;;;-1.26;58.30;95913.13;6237325;22;20024;-86
2024/01/12 08:09:13;;;;;;;27.17;11.57;;;;;;;-1.11;57.81;95911.44;6192636;23;20018;-86
2024/01/12 08:11:39;;;;;;;27.00;10.98;;;;;;;-0.71;57.29;95924.41;6192106;23;20023;-86
2024/01/12 08:19:05;;;;;;;30.08;11.75;;;;;;;-0.88;57.83;95916.94;6241254;22;20036;-85
2024/01/12 08:21:30;;;;;;;30.52;12.00;;;;;;;-0.73;56.56;95921.13;6192224;23;20016;-85
2024/01/12 08:23:56;;;;;;;27.38;11.57;;;;;;;-0.78;56.94;95918.06;6168615;23;20008;-85
2024/01/12 08:26:21;;;;;;;29.65;11.95;;;;;;;-0.83;57.22;95920.06;6192742;23;20009;-84
2024/01/12 08:28:51;;;;;;;27.15;11.85;;;;;;;-0.71;57.32;95928.72;6192660;23;20062;-85
2024/01/12 08:31:17;;;;;;;26.90;10.93;;;;;;;-1.21;58.83;95934.13;6217060;23;20012;-86
2024/01/12 08:33:44;;;;;;;27.80;11.35;;;;;;;-0.57;56.87;95922.78;6217857;23;20015;-86
2024/01/12 08:38:59;;;;;;;25.48;11.55;;;;;;;-0.75;57.75;95933.19;6243710;22;20024;-86
2024/01/12 08:41:24;;;;;;;28.10;11.77;;;;;;;-0.83;57.96;95936.19;6167354;23;20016;-86
2024/01/12 08:43:52;;;;;;;29.90;12.30;;;;;;;-0.99;58.61;95922.66;6167503;23;20054;-85
2024/01/12 08:46:19;;;;;;;31.00;12.65;;;;;;;-0.70;58.00;95927.81;6193449;23;20023;-86
2024/01/12 08:48:48;;;;;;;27.30;11.85;;;;;;;-0.46;57.35;95912.72;6192905;23;20008;-86
2024/01/12 08:51:14;;;;;;;30.60;12.57;;;;;;;-0.23;56.94;95932.63;6217814;23;20091;-85
2024/01/12 08:53:40;;;;;;;29.05;12.23;;;;;;;0.11;55.55;95919.47;6185325;23;20108;-86
2024/01/12 08:56:07;;;;;;;30.02;12.20;;;;;;;-0.06;56.81;95928.19;6187891;23;20023;-85
2024/01/12 08:58:33;;;;;;;28.90;12.25;;;;;;;0.14;56.01;95919.28;6163599;23;20058;-86
2024/01/12 09:01:01;;;;;;;28.02;11.93;;;;;;;0.03;56.61;95934.50;6187171;23;20040;-86
2024/01/12 09:03:27;;;;;;;27.42;12.40;;;;;;;0.12;56.29;95923.69;6187498;23;20008;-86
2024/01/12 09:05:52;;;;;;;29.60;12.55;;;;;;;0.31;56.16;95931.84;6190334;23;20011;-87
2024/01/12 09:08:18;;;;;;;28.90;12.38;;;;;;;0.16;56.89;95928.50;6189450;23;20025;-86
2024/01/12 09:10:44;;;;;;;30.33;12.38;;;;;;;0.57;56.05;95934.47;6163734;23;20096;-87
2024/01/12 09:13:10;;;;;;;31.67;13.25;;;;;;;0.57;55.85;95924.22;6164032;23;20031;-87
2024/01/12 09:18:01;;;;;;;30.58;12.75;;;;;;;0.60;56.01;95918.91;6152261;23;20096;-86
2024/01/12 09:20:26;;;;;;;28.42;12.23;;;;;;;0.80;54.85;95932.16;6111369;23;20021;-87
2024/01/12 09:22:52;;;;;;;32.45;13.38;;;;;;;0.87;54.91;95930.84;6159638;23;20020;-88
2024/01/12 09:25:17;;;;;;;30.80;12.95;;;;;;;0.64;55.04;95934.91;6134939;23;20001;-87
2024/01/12 09:27:43;;;;;;;29.85;12.90;;;;;;;0.21;55.53;95933.34;6134481;23;20033;-87
2024/01/12 09:32:34;;;;;;;29.55;12.68;;;;;;;0.70;55.46;95942.19;6181218;23;20028;-87
2024/01/12 09:34:59;;;;;;;29.00;12.43;;;;;;;0.88;55.20;95951.25;6164767;23;20008;-88
2024/01/12 09:37:25;;;;;;;27.40;12.38;;;;;;;0.66;55.10;95941.56;6189586;23;20028;-88
2024/01/12 09:39:53;;;;;;;27.77;12.80;;;;;;;0.70;56.01;95942.19;6140492;23;20008;-88
2024/01/12 15:26:56;;;;;;;24.45;11.60;;;;;;;1.87;57.85;95855.69;6212242;22;20033;-85
2024/01/12 15:29:26;;;;;;;26.88;13.02;;;;;;;2.07;57.22;95861.16;6135644;23;20016;-85
2024/01/12 15:31:51;;;;;;;31.73;14.95;;;;;;;2.15;56.76;95866.56;6185959;23;20007;-86
2024/01/12 15:34:17;;;;;;;30.90;14.93;;;;;;;2.02;57.32;95852.97;6138248;23;20013;-86
2024/01/12 15:36:42;;;;;;;32.72;15.02;;;;;;;1.86;57.86;95838.66;6187235;23;20087;-86
2024/01/12 16:59:48;;;;;;;29.83;14.07;;;;;;;2.06;58.34;95868.03;6209714;23;20044;-86
2024/01/12 18:50:34;;;;;;;32.58;17.50;;;;;;;1.72;58.58;95861.91;6207163;23;20040;-86
2024/01/12 18:53:02;;;;;;;34.42;15.85;;;;;;;1.35;58.99;95869.56;6217172;23;20016;-86
2024/01/12 18:55:27;;;;;;;37.55;16.33;;;;;;;1.54;59.03;95869.97;6193580;23;20063;-86
2024/01/12 19:02:53;;;;;;;30.08;13.45;;;;;;;1.75;58.23;95874.50;6211631;23;20008;-87
2024/01/12 19:15:30;;;;;;;30.85;14.85;;;;;;;1.55;58.39;95869.00;6212135;23;20021;-86
2024/01/12 19:17:55;;;;;;;29.30;14.05;;;;;;;1.42;59.26;95885.34;6162393;23;20030;-85
2024/01/12 19:20:23;;;;;;;30.50;13.80;;;;;;;1.64;58.61;95874.41;6161551;23;20008;-86
2024/01/12 19:22:49;;;;;;;28.02;13.68;;;;;;;1.52;58.33;95869.25;6185624;23;20004;-86
2024/01/12 19:25:14;;;;;;;30.05;14.13;;;;;;;1.68;58.96;95881.00;6162633;23;20003;-86
2024/01/12 19:27:40;;;;;;;30.63;14.23;;;;;;;1.51;59.35;95880.41;6162287;23;20005;-85
2024/01/12 19:30:09;;;;;;;30.60;13.95;;;;;;;1.54;58.96;95877.66;6187212;23;20035;-86
2024/01/12 19:32:36;;;;;;;27.08;13.23;;;;;;;1.84;58.04;95865.34;6162402;23;20098;-86
2024/01/12 19:40:03;;;;;;;30.42;14.75;;;;;;;1.49;59.18;95877.13;6209884;23;20020;-85
2024/01/12 19:47:41;;;;;;;32.03;15.30;;;;;;;1.59;59.58;95879.06;6180057;22;20021;-88
2024/01/12 19:50:08;;;;;;;27.63;13.52;;;;;;;1.27;60.02;95871.84;6212083;23;20027;-85
2024/01/12 19:52:33;;;;;;;28.73;13.80;;;;;;;1.39;58.99;95883.81;6162946;23;20056;-85
2024/01/12 19:54:58;;;;;;;27.88;12.45;;;;;;;1.47;58.35;95884.13;6187708;23;19997;-85
2024/01/12 20:02:25;;;;;;;28.33;13.98;;;;;;;1.11;58.65;95888.25;6182903;23;20025;-85
2024/01/12 20:04:53;;;;;;;31.00;13.20;;;;;;;1.26;58.58;95890.72;6133230;23;20082;-85
2024/01/12 20:09:52;;;;;;;29.05;13.40;;;;;;;1.08;58.51;95887.63;6212594;23;20017;-85
2024/01/12 20:12:18;;;;;;;28.67;12.85;;;;;;;0.85;59.49;95887.41;6162785;23;20019;-85
2024/01/12 20:14:44;;;;;;;28.50;12.45;;;;;;;1.08;59.15;95898.69;6187464;23;20008;-85
2024/01/12 20:17:09;;;;;;;27.33;12.80;;;;;;;1.12;58.53;95896.75;6163011;23;20033;-85
2024/01/12 20:19:35;;;;;;;30.90;13.50;;;;;;;1.20;58.28;95906.47;6185660;23;20019;-86
2024/01/12 20:27:01;;;;;;;26.10;12.40;;;;;;;1.12;57.81;95891.63;6210506;23;20023;-85
2024/01/12 20:29:30;;;;;;;23.70;11.75;;;;;;;1.07;58.21;95901.38;6137537;23;20008;-85
2024/01/12 20:31:55;;;;;;;27.17;12.10;;;;;;;0.81;58.20;95900.53;6162071;23;20011;-86
2024/01/12 20:34:21;;;;;;;26.55;12.20;;;;;;;1.06;57.66;95921.03;6186425;23;20001;-86
2024/01/12 20:36:46;;;;;;;25.08;11.52;;;;;;;0.77;58.47;95915.28;6186120;23;20004;-85
2024/01/12 20:39:15;;;;;;;24.45;11.85;;;;;;;0.76;58.47;95914.47;6186155;23;20000;-86
2024/01/12 20:41:41;;;;;;;25.15;11.30;;;;;;;0.81;58.09;95897.97;6162212;23;20150;-85
2024/01/12 20:44:06;;;;;;;26.88;12.07;;;;;;;0.73;57.31;95904.41;6161639;23;20044;-85
2024/01/12 20:46:32;;;;;;;23.90;11.70;;;;;;;0.53;57.89;95907.44;6161755;23;20004;-86
2024/01/12 20:49:00;;;;;;;24.40;11.25;;;;;;;0.35;57.12;95881.28;6162102;23;20077;-85
2024/01/12 20:51:26;;;;;;;23.88;12.15;;;;;;;0.51;56.85;95896.47;6162098;23;20020;-86
2024/01/12 21:01:37;;;;;;;26.40;12.30;;;;;;;0.45;55.84;95873.84;6213652;22;20008;-85
2024/01/12 21:04:02;;;;;;;26.85;12.75;;;;;;;0.37;56.17;95887.94;6194160;23;20012;-85
2024/01/12 21:06:28;;;;;;;24.80;12.68;;;;;;;-0.01;57.01;95888.63;6192728;23;20008;-85
2024/01/12 21:08:53;;;;;;;25.52;12.13;;;;;;;0.18;56.61;95877.25;6218547;23;20082;-85
2024/01/12 21:18:59;;;;;;;28.77;13.05;;;;;;;-0.41;57.78;95868.09;6213781;23;20036;-85
2024/01/12 21:21:25;;;;;;;26.83;12.95;;;;;;;-0.17;57.44;95882.00;6163841;23;20012;-85
2024/01/12 21:36:46;;;;;;;31.00;13.38;;;;;;;-0.40;57.82;95882.53;6211462;23;20013;-86
2024/01/12 21:39:15;;;;;;;31.08;13.18;;;;;;;-0.23;56.76;95878.94;6163336;23;20008;-85
2024/01/12 21:41:40;;;;;;;31.85;14.00;;;;;;;-0.12;56.52;95882.56;6163879;23;20016;-85
2024/01/12 21:44:06;;;;;;;31.58;14.25;;;;;;;-0.50;57.85;95898.50;6188508;23;20087;-86
2024/01/12 21:46:31;;;;;;;31.65;14.57;;;;;;;-0.81;58.44;95882.47;6188090;23;19996;-85
2024/01/12 21:53:57;;;;;;;33.83;15.32;;;;;;;-0.81;58.33;95887.56;6210622;23;20021;-85
2024/01/12 22:01:25;;;;;;;35.40;14.98;;;;;;;-0.77;58.40;95878.00;6183174;23;20028;-85
2024/01/12 22:03:50;;;;;;;33.05;14.98;;;;;;;-0.58;57.96;95886.19;6109450;23;20066;-85
2024/01/12 22:06:18;;;;;;;33.03;14.85;;;;;;;-0.30;56.98;95881.97;6133987;23;20009;-86
2024/01/12 22:08:43;;;;;;;32.63;13.90;;;;;;;-0.26;56.93;95881.66;6133972;23;20020;-85
2024/01/12 22:16:20;;;;;;;32.67;14.82;;;;;;;-0.53;57.14;95891.00;6208214;23;20020;-85
2024/01/12 22:18:46;;;;;;;34.03;15.20;;;;;;;-0.50;58.20;95886.53;6162658;23;20028;-85
2024/01/12 22:21:13;;;;;;;34.95;14.38;;;;;;;-0.27;57.37;95886.88;6138792;23;20024;-84
2024/01/12 22:23:38;;;;;;;33.35;14.88;;;;;;;-0.65;57.54;95882.38;6162743;23;20039;-85
2024/01/12 22:26:04;;;;;;;34.85;14.57;;;;;;;-0.29;57.79;95881.84;6138221;23;20004;-86
2024/01/12 22:28:29;;;;;;;33.13;14.02;;;;;;;-0.40;57.79;95874.88;6162972;23;20009;-86
2024/01/12 22:30:55;;;;;;;34.03;14.52;;;;;;;-0.76;58.48;95869.41;6163308;23;20016;-85
2024/01/12 22:33:22;;;;;;;32.00;14.32;;;;;;;-0.65;58.53;95872.13;6188148;23;20011;-86